Time;durP1;ratioP1;P1;durP2;ratioP2;P2;SDS_P1;SDS_P2;PMS_P1;PMS_P2;Temp;Humidity;BMP_temperature;BMP_pressure;BME280_temperature;BME280_humidity;BME280_pressure;Samples;Min_cycle;Max_cycle;Signal;HPM_P1;HPM_P2
2024/03/23 00:00:37;;;;;;;17.40;11.80;;;9.10;73.50;;;;;;4972844;28;20030;-70
2024/03/23 00:03:04;;;;;;;55.35;27.40;;;9.20;73.40;;;;;;4973378;28;20038;-70
2024/03/23 00:05:31;;;;;;;29.42;18.73;;;9.40;72.90;;;;;;4973696;28;20111;-69
2024/03/23 00:07:59;;;;;;;26.60;15.38;;;9.40;73.00;;;;;;4959789;28;20379;-71
2024/03/23 00:10:44;;;;;;;22.20;13.68;;;9.30;73.40;;;;;;4990624;28;20477;-72
2024/03/23 00:13:11;;;;;;;19.48;13.43;;;9.40;73.40;;;;;;4949170;28;20058;-67
2024/03/23 00:15:38;;;;;;;19.92;12.77;;;9.30;73.60;;;;;;4956211;28;20539;-70
2024/03/23 00:18:06;;;;;;;33.22;21.10;;;9.20;74.40;;;;;;4982716;28;20046;-68
2024/03/23 00:20:34;;;;;;;21.10;14.98;;;9.30;74.30;;;;;;4988928;28;20037;-70
2024/03/23 00:23:01;;;;;;;61.33;34.42;;;9.10;75.50;;;;;;4973299;28;20473;-70
2024/03/23 00:25:28;;;;;;;23.20;15.82;;;9.20;76.00;;;;;;4972468;28;20093;-69
2024/03/23 00:27:55;;;;;;;17.35;12.43;;;9.10;76.90;;;;;;4972533;28;20043;-71
2024/03/23 00:30:22;;;;;;;20.55;13.60;;;9.20;76.00;;;;;;4972313;28;20042;-70
2024/03/23 00:32:49;;;;;;;20.77;12.68;;;9.20;75.40;;;;;;4977361;28;20030;-70
2024/03/23 00:35:17;;;;;;;22.98;13.50;;;9.20;75.60;;;;;;4968630;28;20068;-70
2024/03/23 00:37:44;;;;;;;20.00;12.60;;;9.20;75.80;;;;;;4956473;28;20042;-70
2024/03/23 00:40:13;;;;;;;18.08;11.82;;;9.30;76.00;;;;;;4965259;28;20419;-70
2024/03/23 00:42:40;;;;;;;21.73;12.75;;;9.30;76.60;;;;;;4966216;28;20034;-70
2024/03/23 00:45:09;;;;;;;16.58;11.98;;;9.30;76.50;;;;;;4979122;28;20079;-72
2024/03/23 00:47:36;;;;;;;16.63;12.13;;;9.00;78.00;;;;;;4978099;28;20030;-72
2024/03/23 00:50:03;;;;;;;16.20;11.48;;;8.90;78.70;;;;;;4984843;28;20037;-69
2024/03/23 00:52:30;;;;;;;19.63;13.15;;;9.00;78.40;;;;;;4959062;28;20057;-69
2024/03/23 00:54:56;;;;;;;21.45;12.88;;;8.90;78.40;;;;;;4975411;28;20397;-67
2024/03/23 00:57:22;;;;;;;20.77;13.05;;;9.00;78.40;;;;;;4962322;28;20030;-70
2024/03/23 00:59:49;;;;;;;16.80;12.32;;;9.00;78.10;;;;;;4971870;28;20034;-69
2024/03/23 01:02:16;;;;;;;24.20;13.57;;;8.90;78.00;;;;;;4971582;28;20649;-69
2024/03/23 01:04:43;;;;;;;18.58;12.85;;;8.90;78.00;;;;;;4981207;28;20112;-70
2024/03/23 01:07:09;;;;;;;22.52;13.57;;;9.00;77.80;;;;;;4971874;28;20042;-72
2024/03/23 01:09:35;;;;;;;21.63;14.30;;;9.00;77.20;;;;;;4978939;28;20034;-71
2024/03/23 01:12:01;;;;;;;20.27;14.20;;;9.00;76.90;;;;;;4980656;28;20666;-70
2024/03/23 01:14:27;;;;;;;20.75;14.93;;;8.30;78.20;;;;;;4973436;28;20038;-68
2024/03/23 01:16:54;;;;;;;27.85;16.23;;;8.00;78.60;;;;;;4965478;28;20041;-70
2024/03/23 01:19:20;;;;;;;23.75;15.20;;;7.90;78.90;;;;;;4978036;28;20037;-69
2024/03/23 01:21:46;;;;;;;27.45;15.82;;;8.10;78.20;;;;;;4973809;28;20038;-69
2024/03/23 01:24:12;;;;;;;21.23;14.50;;;8.00;78.60;;;;;;4977055;28;20038;-70
2024/03/23 01:26:38;;;;;;;28.30;15.75;;;8.30;77.90;;;;;;4971793;28;20030;-71
2024/03/23 01:29:04;;;;;;;21.48;14.05;;;8.60;76.90;;;;;;4976024;28;20035;-69
2024/03/23 01:31:31;;;;;;;21.17;13.75;;;8.60;75.90;;;;;;4971556;28;20031;-74
2024/03/23 01:33:58;;;;;;;21.55;14.43;;;8.40;76.60;;;;;;4971185;28;20052;-71
2024/03/23 01:36:24;;;;;;;23.08;14.18;;;8.40;75.90;;;;;;4971264;28;20374;-68
2024/03/23 01:39:09;;;;;;;24.13;13.65;;;8.20;76.20;;;;;;4988709;28;20073;-68
2024/03/23 01:41:53;;;;;;;20.45;13.10;;;7.90;77.70;;;;;;4988886;28;20357;-70
2024/03/23 01:44:20;;;;;;;22.25;13.82;;;7.70;78.20;;;;;;4971354;28;20049;-69
2024/03/23 01:46:46;;;;;;;18.45;13.23;;;7.80;78.10;;;;;;4971331;28;20050;-72
2024/03/23 01:49:13;;;;;;;19.63;13.55;;;7.90;78.60;;;;;;4971271;28;20031;-72
2024/03/23 01:51:39;;;;;;;21.98;13.50;;;7.70;78.40;;;;;;4970829;28;20088;-68
2024/03/23 01:54:07;;;;;;;20.45;14.07;;;7.90;77.90;;;;;;4971113;28;20031;-69
2024/03/23 01:56:37;;;;;;;18.50;12.90;;;8.30;76.90;;;;;;5038820;28;20034;-67
2024/03/23 01:59:04;;;;;;;20.75;12.88;;;8.30;76.10;;;;;;4970955;28;20031;-70
2024/03/23 02:01:30;;;;;;;21.20;13.00;;;8.10;76.30;;;;;;4971266;28;20046;-70
2024/03/23 02:03:57;;;;;;;19.50;13.02;;;7.70;77.80;;;;;;4970819;28;20049;-73
2024/03/23 02:06:25;;;;;;;21.50;13.13;;;7.90;77.90;;;;;;4971650;28;20034;-70
2024/03/23 02:08:51;;;;;;;19.80;13.43;;;8.20;76.90;;;;;;5049584;28;20049;-70
2024/03/23 02:11:17;;;;;;;22.65;13.73;;;8.20;76.30;;;;;;4980448;28;20542;-71
2024/03/23 02:13:43;;;;;;;19.02;11.90;;;8.20;76.30;;;;;;4970433;28;20034;-70
2024/03/23 02:16:10;;;;;;;14.82;10.63;;;8.20;76.20;;;;;;4970733;28;20069;-72
2024/03/23 02:18:36;;;;;;;15.88;11.07;;;8.20;76.20;;;;;;4982926;28;20091;-71
2024/03/23 02:21:20;;;;;;;18.88;11.57;;;8.10;76.70;;;;;;4980042;28;20071;-71
2024/03/23 02:23:47;;;;;;;14.52;11.10;;;8.20;76.40;;;;;;4965104;28;20092;-68
2024/03/23 02:26:15;;;;;;;16.42;10.85;;;8.20;76.20;;;;;;4956361;28;20034;-71
2024/03/23 02:28:41;;;;;;;14.50;10.38;;;8.20;76.40;;;;;;4970934;28;20053;-71
2024/03/23 02:31:07;;;;;;;20.80;11.45;;;8.30;76.10;;;;;;4975199;28;20030;-69
2024/03/23 02:33:34;;;;;;;16.17;11.02;;;8.10;76.40;;;;;;4972840;28;20035;-69
2024/03/23 02:36:00;;;;;;;16.23;10.85;;;8.10;77.10;;;;;;4970446;28;20030;-68
2024/03/23 02:38:27;;;;;;;16.70;10.73;;;8.20;77.20;;;;;;4973439;28;20045;-73
2024/03/23 02:41:12;;;;;;;17.23;11.68;;;8.00;77.50;;;;;;4991806;28;20030;-69
2024/03/23 02:43:38;;;;;;;19.05;11.93;;;8.10;77.60;;;;;;4985860;28;20049;-69
2024/03/23 02:46:04;;;;;;;15.55;10.82;;;7.90;77.70;;;;;;4973665;28;20034;-71
2024/03/23 02:48:30;;;;;;;15.15;10.98;;;8.00;77.70;;;;;;4958332;28;20038;-69
2024/03/23 02:50:56;;;;;;;16.42;10.60;;;7.90;78.30;;;;;;4970515;28;22076;-70
2024/03/23 02:53:22;;;;;;;15.75;10.55;;;8.00;78.30;;;;;;4973835;28;20043;-72
2024/03/23 02:55:49;;;;;;;12.38;10.25;;;7.90;78.00;;;;;;4973699;28;20042;-71
2024/03/23 02:58:16;;;;;;;14.38;10.05;;;7.70;78.20;;;;;;4973451;28;20050;-70
2024/03/23 03:00:42;;;;;;;15.90;10.82;;;7.40;78.90;;;;;;4957083;28;20477;-72
2024/03/23 03:03:08;;;;;;;12.82;9.65;;;7.20;80.10;;;;;;4973549;28;20084;-70
2024/03/23 03:05:35;;;;;;;16.77;10.43;;;6.90;80.70;;;;;;4970215;28;20381;-69
2024/03/23 03:08:01;;;;;;;13.73;9.93;;;7.00;80.90;;;;;;4967610;28;20034;-71
2024/03/23 03:10:27;;;;;;;15.68;10.27;;;6.90;80.70;;;;;;4976243;28;20030;-69
2024/03/23 03:12:53;;;;;;;17.33;10.73;;;6.90;80.70;;;;;;4973509;28;20035;-70
2024/03/23 03:15:39;;;;;;;11.73;9.63;;;6.90;80.90;;;;;;4976129;28;20041;-68
2024/03/23 03:18:05;;;;;;;15.05;10.93;;;6.90;81.50;;;;;;4976939;28;20385;-72
2024/03/23 03:20:32;;;;;;;15.30;10.18;;;6.60;82.30;;;;;;4973462;28;20065;-70
2024/03/23 03:22:58;;;;;;;17.38;11.63;;;6.60;82.60;;;;;;4973381;28;20035;-69
2024/03/23 03:25:24;;;;;;;14.00;10.45;;;6.90;81.70;;;;;;4973055;28;20366;-69
2024/03/23 03:27:50;;;;;;;16.10;10.52;;;7.10;80.70;;;;;;4978008;28;20037;-68
2024/03/23 03:30:16;;;;;;;16.30;10.48;;;7.20;80.80;;;;;;4992017;28;20050;-69
2024/03/23 03:32:43;;;;;;;12.88;9.82;;;7.10;80.50;;;;;;5044022;28;20102;-73
2024/03/23 03:35:09;;;;;;;15.13;10.73;;;7.10;81.10;;;;;;4976348;28;20030;-68
2024/03/23 03:37:35;;;;;;;11.80;9.45;;;7.00;80.50;;;;;;4992525;28;20107;-72
2024/03/23 03:40:01;;;;;;;15.00;10.32;;;6.70;82.00;;;;;;4960067;28;20037;-70
2024/03/23 03:42:27;;;;;;;13.13;9.98;;;6.80;81.90;;;;;;4950587;28;20440;-71
2024/03/23 03:44:54;;;;;;;12.18;9.73;;;6.90;81.30;;;;;;4978008;28;20038;-70
2024/03/23 03:47:20;;;;;;;13.55;10.30;;;6.70;82.00;;;;;;4979188;28;20064;-72
2024/03/23 03:49:47;;;;;;;11.00;9.63;;;6.90;82.70;;;;;;4977017;28;20095;-68
2024/03/23 03:52:13;;;;;;;14.15;9.98;;;7.00;81.30;;;;;;4965758;28;20054;-69
2024/03/23 03:54:39;;;;;;;15.10;10.32;;;7.00;81.50;;;;;;4976774;28;20381;-73
2024/03/23 03:57:10;;;;;;;17.55;10.35;;;7.00;81.60;;;;;;4956434;28;20473;-68
2024/03/23 03:59:37;;;;;;;14.25;9.60;;;6.80;82.20;;;;;;4972752;28;20043;-74
2024/03/23 04:02:03;;;;;;;12.65;9.32;;;6.60;83.40;;;;;;4982440;28;20392;-70
2024/03/23 04:04:29;;;;;;;16.98;10.80;;;6.60;83.80;;;;;;4971072;28;20045;-70
2024/03/23 04:07:02;;;;;;;14.25;10.05;;;6.90;83.10;;;;;;4981525;28;20419;-71
2024/03/23 04:09:30;;;;;;;16.38;10.00;;;7.10;81.80;;;;;;4979855;28;20031;-69
2024/03/23 04:11:56;;;;;;;14.30;10.75;;;7.20;81.80;;;;;;4964748;28;20046;-71
2024/03/23 04:14:22;;;;;;;14.50;10.43;;;7.20;81.70;;;;;;4960755;28;20043;-72
2024/03/23 04:17:07;;;;;;;13.38;9.77;;;7.30;81.60;;;;;;4978717;28;20062;-70
2024/03/23 04:19:33;;;;;;;17.75;10.90;;;7.20;81.70;;;;;;4982178;28;20068;-69
2024/03/23 04:21:59;;;;;;;17.23;11.05;;;7.20;82.00;;;;;;4972635;28;20041;-72
2024/03/23 04:24:26;;;;;;;18.45;10.70;;;7.30;81.50;;;;;;4977586;28;20075;-68
2024/03/23 04:26:52;;;;;;;15.25;10.00;;;7.30;81.30;;;;;;4982109;28;20034;-69
2024/03/23 04:29:18;;;;;;;19.80;11.63;;;7.40;81.30;;;;;;4974691;28;20084;-70
2024/03/23 04:31:45;;;;;;;21.10;12.15;;;7.30;81.20;;;;;;4972227;28;20092;-72
2024/03/23 04:34:11;;;;;;;17.00;12.52;;;7.00;81.70;;;;;;4981858;28;20083;-70
2024/03/23 04:36:37;;;;;;;19.92;12.80;;;7.00;82.70;;;;;;4972040;28;20497;-71
2024/03/23 04:39:03;;;;;;;17.77;12.88;;;7.10;83.30;;;;;;4955974;28;20049;-68
2024/03/23 04:41:30;;;;;;;20.48;13.60;;;7.20;82.80;;;;;;4988125;28;20556;-67
2024/03/23 04:43:56;;;;;;;15.65;12.05;;;7.20;82.60;;;;;;4981539;28;20038;-70
2024/03/23 04:46:22;;;;;;;21.92;14.52;;;7.20;82.60;;;;;;4972404;28;20031;-72
2024/03/23 04:48:50;;;;;;;21.40;13.88;;;6.90;83.10;;;;;;4963403;28;20062;-70
2024/03/23 04:51:23;;;;;;;22.27;15.23;;;6.70;84.50;;;;;;5008569;28;20046;-71
2024/03/23 04:53:50;;;;;;;23.42;14.73;;;6.60;84.90;;;;;;4983953;28;20030;-70
2024/03/23 04:56:19;;;;;;;23.20;15.77;;;6.60;85.40;;;;;;4971770;28;20035;-72
2024/03/23 04:58:46;;;;;;;26.40;16.07;;;6.50;86.10;;;;;;4976698;28;20038;-72
2024/03/23 05:01:12;;;;;;;24.20;15.30;;;6.60;85.20;;;;;;4971368;28;20453;-73
2024/03/23 05:03:38;;;;;;;26.40;15.98;;;6.80;85.00;;;;;;4966147;28;20045;-70
2024/03/23 05:06:05;;;;;;;22.85;15.13;;;6.90;84.20;;;;;;4960852;28;20035;-66
2024/03/23 05:08:31;;;;;;;26.55;14.60;;;6.40;85.30;;;;;;4974433;28;20039;-69
2024/03/23 05:10:57;;;;;;;21.15;14.18;;;6.40;86.40;;;;;;4965970;28;20034;-66
2024/03/23 05:13:24;;;;;;;19.35;13.55;;;6.70;85.40;;;;;;4986570;28;20030;-66
2024/03/23 05:15:54;;;;;;;18.10;12.57;;;6.90;84.50;;;;;;4955552;28;20038;-69
2024/03/23 05:18:21;;;;;;;24.15;13.77;;;7.10;83.70;;;;;;4981589;28;20044;-71
2024/03/23 05:21:06;;;;;;;20.67;12.25;;;7.10;82.90;;;;;;4994278;28;20415;-71
2024/03/23 05:23:32;;;;;;;19.40;12.43;;;7.10;83.10;;;;;;4955274;28;20054;-70
2024/03/23 05:25:58;;;;;;;15.88;12.38;;;7.30;82.40;;;;;;4971135;28;20381;-69
2024/03/23 05:28:24;;;;;;;23.17;11.95;;;7.40;82.10;;;;;;4977614;28;20030;-71
2024/03/23 05:30:54;;;;;;;16.65;12.32;;;7.60;81.40;;;;;;4970867;28;20045;-65
2024/03/23 05:33:21;;;;;;;26.25;14.32;;;7.70;80.90;;;;;;4973710;28;20038;-68
2024/03/23 05:35:55;;;;;;;15.75;12.45;;;7.70;80.50;;;;;;4971259;28;20522;-69
2024/03/23 05:38:22;;;;;;;21.40;14.05;;;7.60;80.60;;;;;;4977602;28;20064;-67
2024/03/23 05:40:58;;;;;;;18.13;14.55;;;7.60;81.40;;;;;;4990452;28;20034;-68
2024/03/23 05:43:25;;;;;;;20.40;14.63;;;7.70;81.10;;;;;;4968596;28;20038;-68
2024/03/23 05:45:58;;;;;;;27.35;15.35;;;7.80;80.80;;;;;;4971765;28;20059;-68
2024/03/23 05:48:30;;;;;;;21.17;13.55;;;7.80;80.50;;;;;;4971437;28;20030;-68
2024/03/23 05:50:57;;;;;;;18.05;13.38;;;7.90;80.50;;;;;;4972575;28;20107;-68
2024/03/23 05:53:23;;;;;;;17.02;12.82;;;7.90;80.20;;;;;;4982412;28;20054;-68
2024/03/23 05:56:03;;;;;;;22.95;13.38;;;7.90;80.90;;;;;;4972289;28;20046;-68
2024/03/23 05:58:30;;;;;;;19.47;13.40;;;8.20;80.00;;;;;;4971882;28;20031;-70
2024/03/23 06:01:01;;;;;;;20.90;13.18;;;8.40;79.40;;;;;;4973808;28;20049;-69
2024/03/23 06:03:28;;;;;;;20.40;13.32;;;8.40;79.30;;;;;;4978594;28;20109;-71
2024/03/23 06:05:55;;;;;;;21.15;13.57;;;8.20;79.50;;;;;;4966316;28;20038;-69
2024/03/23 06:08:23;;;;;;;19.55;13.55;;;8.10;81.30;;;;;;4976727;28;20095;-69
2024/03/23 06:10:51;;;;;;;19.85;12.40;;;8.30;80.70;;;;;;4974225;28;20099;-67
2024/03/23 06:13:18;;;;;;;20.40;12.93;;;8.40;80.40;;;;;;4948060;28;20069;-70
2024/03/23 06:15:46;;;;;;;18.98;13.30;;;8.50;80.20;;;;;;4990518;28;20038;-70
2024/03/23 06:18:13;;;;;;;17.38;11.48;;;8.70;80.00;;;;;;4973631;28;20045;-67
2024/03/23 06:20:39;;;;;;;18.40;12.88;;;9.00;79.20;;;;;;4985255;28;20034;-68
2024/03/23 06:23:06;;;;;;;21.17;12.35;;;9.00;78.80;;;;;;4976130;28;20033;-69
2024/03/23 06:25:32;;;;;;;17.83;12.77;;;9.10;78.90;;;;;;4981665;28;20038;-69
2024/03/23 06:27:58;;;;;;;18.88;13.50;;;9.10;78.80;;;;;;4974057;28;20518;-67
2024/03/23 06:30:43;;;;;;;16.63;12.70;;;8.80;80.00;;;;;;4994453;28;20407;-68
2024/03/23 06:33:09;;;;;;;16.13;12.98;;;9.10;79.90;;;;;;4973990;28;20039;-71
2024/03/23 06:35:37;;;;;;;20.88;12.50;;;9.00;80.80;;;;;;4962807;28;20034;-66
2024/03/23 06:38:04;;;;;;;17.65;12.55;;;9.10;80.90;;;;;;4973892;28;20385;-67
2024/03/23 06:40:31;;;;;;;23.45;13.05;;;9.10;81.80;;;;;;4963094;28;20042;-69
2024/03/23 06:42:57;;;;;;;19.48;12.82;;;9.10;82.30;;;;;;4973714;28;20039;-68
2024/03/23 06:45:23;;;;;;;19.25;12.63;;;9.00;83.60;;;;;;4981813;28;20049;-68
2024/03/23 06:47:52;;;;;;;20.85;12.18;;;9.10;83.60;;;;;;4973720;28;20035;-71
2024/03/23 06:50:19;;;;;;;20.50;13.82;;;9.20;82.50;;;;;;4974975;28;20031;-69
2024/03/23 06:52:45;;;;;;;20.35;12.85;;;9.10;80.60;;;;;;4977310;28;20054;-68
2024/03/23 06:55:11;;;;;;;20.10;12.82;;;9.00;80.80;;;;;;4983282;28;20030;-71
2024/03/23 06:57:37;;;;;;;24.27;13.60;;;8.90;80.80;;;;;;4969424;28;20465;-71
2024/03/23 07:00:04;;;;;;;19.10;13.48;;;8.90;81.50;;;;;;4973223;28;20039;-71
2024/03/23 07:02:31;;;;;;;22.83;14.10;;;8.60;82.80;;;;;;4978830;28;20035;-69
2024/03/23 07:04:57;;;;;;;23.80;13.48;;;8.90;82.70;;;;;;4983484;28;20034;-68
2024/03/23 07:07:23;;;;;;;25.45;14.00;;;9.20;81.90;;;;;;4977352;28;20030;-69
2024/03/23 07:09:49;;;;;;;35.47;15.60;;;9.10;81.70;;;;;;4972983;28;20088;-72
2024/03/23 07:12:15;;;;;;;29.73;14.15;;;9.20;81.80;;;;;;4974958;28;20045;-68
2024/03/23 07:14:42;;;;;;;26.38;14.02;;;9.40;80.70;;;;;;4964864;28;20363;-70
2024/03/23 07:17:26;;;;;;;34.85;16.23;;;9.50;80.60;;;;;;4976011;28;20026;-68
2024/03/23 07:19:53;;;;;;;22.58;13.68;;;9.70;80.00;;;;;;4963721;28;20072;-68
2024/03/23 07:22:19;;;;;;;22.30;13.60;;;9.70;79.50;;;;;;4973378;28;20038;-68
2024/03/23 07:24:45;;;;;;;21.75;13.23;;;9.70;79.60;;;;;;4970517;28;20393;-69
2024/03/23 07:27:11;;;;;;;20.75;12.32;;;9.70;80.60;;;;;;4985123;28;20415;-69
2024/03/23 07:29:37;;;;;;;22.92;13.18;;;9.80;80.70;;;;;;4962996;28;20374;-70
2024/03/23 07:32:04;;;;;;;21.73;12.52;;;9.80;80.60;;;;;;4980210;28;20050;-69
2024/03/23 07:34:30;;;;;;;18.75;11.75;;;9.80;81.50;;;;;;4973223;28;20031;-69
2024/03/23 07:36:56;;;;;;;17.83;11.15;;;10.00;81.70;;;;;;4962029;28;20042;-69
2024/03/23 07:39:22;;;;;;;17.08;11.38;;;9.70;82.70;;;;;;4980992;28;20038;-68
2024/03/23 07:41:48;;;;;;;17.77;11.95;;;9.80;81.90;;;;;;4979718;28;20037;-69
2024/03/23 07:44:15;;;;;;;18.75;12.50;;;9.80;82.50;;;;;;4974163;28;20512;-70
2024/03/23 07:46:41;;;;;;;19.77;12.82;;;10.00;82.90;;;;;;4991772;28;20030;-67
2024/03/23 07:49:07;;;;;;;19.13;12.38;;;10.10;83.40;;;;;;4992382;28;20041;-73
2024/03/23 07:51:34;;;;;;;19.40;12.15;;;10.00;84.30;;;;;;4972907;28;20047;-70
2024/03/23 07:54:00;;;;;;;16.17;10.75;;;10.00;86.80;;;;;;4981284;28;20558;-70
2024/03/23 07:56:27;;;;;;;17.42;10.27;;;10.00;87.60;;;;;;4974545;28;20034;-69
2024/03/23 07:58:53;;;;;;;16.13;10.40;;;9.90;88.60;;;;;;4978053;28;20030;-69
2024/03/23 08:01:20;;;;;;;14.38;9.95;;;10.00;89.40;;;;;;4965519;28;20064;-68
2024/03/23 08:03:46;;;;;;;16.42;9.70;;;10.20;89.80;;;;;;4985583;28;20477;-69
2024/03/23 08:06:17;;;;;;;15.10;10.65;;;10.20;89.30;;;;;;4972885;28;20034;-70
2024/03/23 08:09:02;;;;;;;12.10;9.35;;;10.20;89.30;;;;;;4973477;28;20052;-68
2024/03/23 08:11:30;;;;;;;16.00;10.57;;;10.60;88.30;;;;;;4957737;28;20035;-71
2024/03/23 08:13:58;;;;;;;15.32;9.73;;;10.70;88.10;;;;;;4972699;28;20068;-69
2024/03/23 08:16:24;;;;;;;12.63;9.30;;;10.90;87.90;;;;;;4972659;28;20041;-71
2024/03/23 08:18:57;;;;;;;16.80;9.88;;;11.00;87.10;;;;;;4974511;28;20049;-70
2024/03/23 08:21:25;;;;;;;17.10;10.70;;;11.10;86.30;;;;;;4966273;28;20034;-69
2024/03/23 08:23:52;;;;;;;66.57;36.42;;;11.20;86.80;;;;;;4967864;28;20034;-70
2024/03/23 08:26:37;;;;;;;30.10;18.13;;;11.60;85.90;;;;;;4993380;28;20374;-69
2024/03/23 08:29:04;;;;;;;14.75;11.63;;;11.60;83.30;;;;;;4972048;28;20034;-73
2024/03/23 08:31:31;;;;;;;14.88;10.57;;;11.60;84.10;;;;;;4974362;28;20080;-69
2024/03/23 08:33:59;;;;;;;14.60;10.15;;;11.60;83.90;;;;;;4971986;28;20053;-68
2024/03/23 08:36:44;;;;;;;15.55;10.13;;;11.70;84.30;;;;;;4973065;28;20020;-69
2024/03/23 08:39:13;;;;;;;16.52;10.75;;;11.80;82.40;;;;;;4962288;28;20049;-72
2024/03/23 08:41:39;;;;;;;17.90;10.25;;;11.90;82.20;;;;;;4971062;28;20026;-69
2024/03/23 08:44:05;;;;;;;16.73;10.98;;;11.80;82.10;;;;;;4977934;28;20485;-70
2024/03/23 08:46:31;;;;;;;15.18;10.10;;;11.90;83.00;;;;;;4969738;28;20034;-69
2024/03/23 08:48:57;;;;;;;13.52;9.85;;;12.10;82.30;;;;;;4974335;28;20034;-73
2024/03/23 08:51:24;;;;;;;17.02;9.95;;;12.30;82.20;;;;;;4983695;28;20067;-71
2024/03/23 08:53:50;;;;;;;14.52;9.63;;;12.60;80.60;;;;;;4964432;28;20061;-70
2024/03/23 08:56:17;;;;;;;15.07;10.02;;;12.70;80.30;;;;;;4973929;28;20034;-69
2024/03/23 08:58:43;;;;;;;14.95;9.55;;;12.70;81.40;;;;;;4956976;28;20091;-69
2024/03/23 09:01:13;;;;;;;13.00;9.73;;;12.50;82.90;;;;;;4970512;28;20041;-70
2024/03/23 09:03:40;;;;;;;15.75;10.00;;;12.70;82.20;;;;;;4978224;28;20053;-69
2024/03/23 09:06:11;;;;;;;44.42;28.20;;;13.00;82.60;;;;;;4970916;28;20030;-67
2024/03/23 09:08:39;;;;;;;74.40;39.17;;;13.70;81.80;;;;;;4957606;28;20042;-69
2024/03/23 09:11:07;;;;;;;27.15;15.85;;;14.20;80.10;;;;;;4977368;28;20359;-69
2024/03/23 09:13:34;;;;;;;19.33;11.18;;;14.30;79.10;;;;;;4975179;28;20030;-72
2024/03/23 09:16:01;;;;;;;16.27;10.15;;;14.40;75.90;;;;;;4971624;28;20049;-70
2024/03/23 09:18:28;;;;;;;19.75;11.23;;;14.20;76.50;;;;;;4977586;28;20038;-70
2024/03/23 09:20:54;;;;;;;23.35;11.85;;;14.20;74.90;;;;;;4980906;28;20042;-71
2024/03/23 09:23:23;;;;;;;14.85;9.55;;;14.20;75.80;;;;;;4973033;28;20370;-72
2024/03/23 09:25:50;;;;;;;14.50;10.43;;;14.40;76.10;;;;;;4960824;28;20043;-70
2024/03/23 09:28:16;;;;;;;62.92;36.53;;;14.30;77.40;;;;;;4961455;28;20041;-72
2024/03/23 09:30:43;;;;;;;18.45;12.38;;;14.50;76.90;;;;;;4970710;28;20030;-72
2024/03/23 09:33:13;;;;;;;16.48;10.85;;;14.60;76.00;;;;;;4982398;28;20038;-72
2024/03/23 09:35:40;;;;;;;20.05;10.27;;;14.70;75.90;;;;;;4961345;28;20038;-74
2024/03/23 09:38:10;;;;;;;17.95;10.65;;;14.80;75.10;;;;;;4983111;28;20174;-73
2024/03/23 09:40:43;;;;;;;63.88;33.78;;;15.00;75.10;;;;;;4974741;28;20030;-71
2024/03/23 09:43:09;;;;;;;109.00;58.40;;;15.00;75.00;;;;;;4973404;28;20385;-68
2024/03/23 09:45:39;;;;;;;18.75;13.55;;;15.30;74.50;;;;;;4964377;28;20034;-71
2024/03/23 09:48:09;;;;;;;15.07;10.20;;;15.10;73.10;;;;;;4977968;28;20385;-71
2024/03/23 09:50:43;;;;;;;17.48;8.55;;;15.30;71.50;;;;;;4978912;28;20035;-70
2024/03/23 09:53:12;;;;;;;13.70;9.52;;;15.30;72.10;;;;;;4978315;28;20079;-74
2024/03/23 09:55:40;;;;;;;14.90;9.27;;;15.80;72.10;;;;;;4974149;28;20153;-70
2024/03/23 09:58:08;;;;;;;14.27;9.30;;;15.90;70.30;;;;;;4972813;28;20050;-67
2024/03/23 10:00:35;;;;;;;12.38;8.30;;;16.30;70.30;;;;;;4967250;28;20042;-72
2024/03/23 10:03:06;;;;;;;11.93;8.32;;;16.20;69.50;;;;;;4958383;28;20050;-71
2024/03/23 10:05:35;;;;;;;72.07;40.15;;;16.30;69.80;;;;;;4966320;28;20044;-72
2024/03/23 10:08:18;;;;;;;49.03;32.58;;;16.50;68.50;;;;;;4962958;28;20045;-66
2024/03/23 10:10:45;;;;;;;15.25;10.30;;;16.60;68.40;;;;;;4981293;28;20087;-70
2024/03/23 10:13:24;;;;;;;13.98;9.18;;;16.40;68.90;;;;;;4980292;28;20034;-70
2024/03/23 10:15:59;;;;;;;52.15;32.45;;;16.50;68.40;;;;;;4979931;28;20652;-71
2024/03/23 10:18:28;;;;;;;52.83;32.08;;;16.80;68.00;;;;;;4977211;28;20053;-71
2024/03/23 10:21:11;;;;;;;19.60;13.80;;;16.80;67.30;;;;;;4981361;28;20063;-70
2024/03/23 10:23:49;;;;;;;14.48;9.43;;;17.30;67.60;;;;;;4982864;28;20106;-70
2024/03/23 10:26:18;;;;;;;13.10;9.30;;;17.40;63.60;;;;;;4976066;28;20435;-69
2024/03/23 10:29:07;;;;;;;19.77;10.68;;;17.10;61.70;;;;;;4967854;28;20064;-74
2024/03/23 10:31:37;;;;;;;42.65;27.17;;;16.80;61.60;;;;;;4991848;28;20030;-68
2024/03/23 10:34:04;;;;;;;14.90;9.65;;;16.90;62.10;;;;;;4967730;28;20362;-70
2024/03/23 10:36:30;;;;;;;15.30;7.60;;;17.10;61.60;;;;;;4975501;28;20445;-69
2024/03/23 10:39:00;;;;;;;11.77;7.45;;;17.00;60.40;;;;;;4982372;28;20087;-70
2024/03/23 10:41:32;;;;;;;15.13;8.70;;;17.30;61.10;;;;;;4971725;28;20129;-67
2024/03/23 10:43:59;;;;;;;13.25;8.50;;;17.40;61.90;;;;;;4977954;28;20033;-69
2024/03/23 10:46:26;;;;;;;11.93;7.60;;;17.70;61.80;;;;;;4981944;28;20151;-69
2024/03/23 10:48:52;;;;;;;9.70;6.75;;;18.00;61.30;;;;;;4982312;28;20389;-70
2024/03/23 10:51:38;;;;;;;10.35;6.32;;;18.00;59.80;;;;;;4968174;28;20088;-72
2024/03/23 10:54:25;;;;;;;11.73;6.72;;;17.90;59.60;;;;;;4993383;28;20415;-70
2024/03/23 10:57:05;;;;;;;13.10;6.90;;;18.20;60.30;;;;;;4976035;28;20042;-70
2024/03/23 10:59:32;;;;;;;;;;;18.40;59.90;;;;;;4982027;28;20030;-69
2024/03/23 11:02:02;;;;;;;10.15;6.00;;;18.10;58.00;;;;;;4973257;28;20311;-71
2024/03/23 11:04:38;;;;;;;43.72;28.25;;;18.40;60.00;;;;;;4977402;28;20037;-73
2024/03/23 11:07:23;;;;;;;16.40;10.15;;;18.60;59.40;;;;;;4974524;28;20045;-71
2024/03/23 11:09:52;;;;;;;14.60;7.25;;;18.50;57.50;;;;;;4976475;28;20034;-66
2024/03/23 11:12:21;;;;;;;12.13;7.82;;;18.70;58.50;;;;;;4975312;28;20389;-70
2024/03/23 11:14:49;;;;;;;15.77;9.57;;;19.00;58.30;;;;;;4973894;28;20038;-72
2024/03/23 11:17:19;;;;;;;14.40;7.10;;;19.10;58.70;;;;;;4968594;28;20072;-70
2024/03/23 11:20:09;;;;;;;12.50;6.35;;;19.30;57.20;;;;;;4966754;28;20099;-68
2024/03/23 11:22:43;;;;;;;10.50;5.80;;;19.10;57.20;;;;;;4976969;28;20118;-68
2024/03/23 11:25:29;;;;;;;13.07;6.20;;;19.50;54.80;;;;;;5004996;28;20014;-68
2024/03/23 11:27:57;;;;;;;9.32;6.05;;;19.90;55.50;;;;;;4966438;28;20411;-67
2024/03/23 11:30:24;;;;;;;9.90;5.50;;;19.60;54.90;;;;;;4984583;28;20034;-69
2024/03/23 11:32:56;;;;;;;11.13;5.63;;;19.90;54.70;;;;;;4984773;28;20036;-68
2024/03/23 11:35:35;;;;;;;9.63;5.10;;;20.00;54.50;;;;;;4986372;28;20405;-68
2024/03/23 11:38:10;;;;;;;9.82;5.15;;;20.20;53.80;;;;;;4972710;28;20030;-68
2024/03/23 11:40:39;;;;;;;8.45;5.45;;;20.30;53.30;;;;;;4973327;28;20095;-70
2024/03/23 11:43:07;;;;;;;10.55;5.28;;;20.30;53.10;;;;;;4981341;28;20027;-70
2024/03/23 11:45:39;;;;;;;11.98;6.28;;;20.50;53.90;;;;;;4983156;28;20050;-70
2024/03/23 11:48:24;;;;;;;15.50;7.23;;;20.90;52.70;;;;;;4983746;28;20034;-69
2024/03/23 11:50:54;;;;;;;14.95;6.55;;;20.50;53.90;;;;;;4969789;28;20281;-68
2024/03/23 11:53:22;;;;;;;;;;;21.10;53.10;;;;;;4969680;28;20053;-68
2024/03/23 11:56:00;;;;;;;12.63;6.03;;;21.00;52.10;;;;;;4975405;28;19994;-68
2024/03/23 11:58:44;;;;;;;12.70;7.95;;;21.40;53.30;;;;;;4990811;28;20076;-69
2024/03/23 12:01:11;;;;;;;29.02;18.08;;;21.70;52.00;;;;;;4975043;28;20042;-67
2024/03/23 12:03:37;;;;;;;32.00;20.55;;;21.10;51.40;;;;;;4974476;28;20042;-68
2024/03/23 12:06:05;;;;;;;32.15;20.23;;;23.40;50.60;;;;;;4975486;28;20054;-69
2024/03/23 12:08:35;;;;;;;35.10;21.58;;;28.50;46.50;;;;;;4984856;28;20465;-71
2024/03/23 12:11:13;;;;;;;10.77;5.85;;;31.50;43.10;;;;;;4979296;28;20046;-69
2024/03/23 12:13:44;;;;;;;11.20;5.88;;;30.90;40.20;;;;;;4988830;28;20030;-68
2024/03/23 12:16:16;;;;;;;10.07;5.07;;;32.10;39.20;;;;;;4975408;28;20421;-68
2024/03/23 12:18:46;;;;;;;10.02;4.55;;;32.30;39.50;;;;;;4962471;28;20034;-70
2024/03/23 12:21:12;;;;;;;;;;;32.70;39.30;;;;;;4941164;28;20057;-71
2024/03/23 12:23:44;;;;;;;36.63;25.17;;;33.10;40.30;;;;;;4974102;28;20303;-69
2024/03/23 12:26:12;;;;;;;34.20;24.08;;;33.80;40.20;;;;;;4986170;28;20034;-69
2024/03/23 12:28:38;;;;;;;10.82;6.32;;;33.60;40.10;;;;;;4977128;28;20068;-71
2024/03/23 12:31:08;;;;;;;9.20;5.20;;;33.50;39.80;;;;;;4972500;28;20033;-70
2024/03/23 12:33:34;;;;;;;10.10;4.50;;;34.10;39.40;;;;;;4978717;28;20424;-71
2024/03/23 12:36:00;;;;;;;8.80;3.97;;;33.90;40.10;;;;;;4974894;28;20038;-69
2024/03/23 12:38:26;;;;;;;7.40;3.92;;;33.50;39.60;;;;;;4971749;28;20386;-69
2024/03/23 12:40:52;;;;;;;6.07;3.30;;;33.00;39.60;;;;;;4988908;28;20042;-70
2024/03/23 12:43:19;;;;;;;7.68;4.45;;;32.00;39.30;;;;;;4978191;28;20370;-72